createdAt,value
2022-12-25T00:00:21.102Z,1002.60
2022-12-25T00:01:19.479Z,1002.61
2022-12-25T00:02:19.364Z,1002.62
2022-12-25T00:03:19.440Z,1002.63
2022-12-25T00:04:23.298Z,1002.70
2022-12-25T00:05:19.270Z,1002.68
2022-12-25T00:06:19.262Z,1002.73
2022-12-25T00:07:19.284Z,1002.75
2022-12-25T00:08:19.277Z,1002.73
2022-12-25T00:09:19.257Z,1002.75
2022-12-25T00:10:19.210Z,1002.77
2022-12-25T00:11:19.234Z,1002.74
2022-12-25T00:12:19.226Z,1002.80
2022-12-25T00:13:19.205Z,1002.84
2022-12-25T00:14:19.214Z,1002.80
2022-12-25T00:15:19.207Z,1002.79
2022-12-25T00:16:19.237Z,1002.80
2022-12-25T00:17:19.141Z,1002.76
2022-12-25T00:18:19.147Z,1002.83
2022-12-25T00:19:19.140Z,1002.74
2022-12-25T00:20:19.121Z,1002.71
2022-12-25T00:21:19.124Z,1002.72
2022-12-25T00:22:19.061Z,1002.67
2022-12-25T00:23:19.061Z,1002.71
2022-12-25T00:24:19.044Z,1002.73
2022-12-25T00:25:19.195Z,1002.83
2022-12-25T00:26:19.060Z,1002.80
2022-12-25T00:27:19.049Z,1002.82
2022-12-25T00:28:19.050Z,1002.79
2022-12-25T00:29:19.742Z,1002.85
2022-12-25T00:30:19.024Z,1002.88
2022-12-25T00:31:19.051Z,1002.83
2022-12-25T00:32:18.958Z,1002.84
2022-12-25T00:33:26.683Z,1002.80
2022-12-25T00:34:18.950Z,1002.82
2022-12-25T00:35:18.924Z,1002.82
2022-12-25T00:36:18.943Z,1002.80
2022-12-25T00:37:18.920Z,1002.79
2022-12-25T00:38:18.886Z,1002.79
2022-12-25T00:39:18.895Z,1002.75
2022-12-25T00:40:18.855Z,1002.78
2022-12-25T00:41:18.855Z,1002.76
2022-12-25T00:42:18.867Z,1002.73
2022-12-25T00:43:18.834Z,1002.77
2022-12-25T00:44:18.860Z,1002.71
2022-12-25T00:45:18.835Z,1002.70
2022-12-25T00:46:19.030Z,1002.68
2022-12-25T00:47:18.877Z,1002.77
2022-12-25T00:48:18.783Z,1002.65
2022-12-25T00:49:20.777Z,1002.67
2022-12-25T00:50:18.795Z,1002.69
2022-12-25T00:51:18.870Z,1002.65
2022-12-25T00:52:18.766Z,1002.66
2022-12-25T00:53:18.744Z,1002.75
2022-12-25T00:54:18.728Z,1002.65
2022-12-25T00:55:18.705Z,1002.72
2022-12-25T00:56:18.709Z,1002.69
2022-12-25T00:57:18.662Z,1002.61
2022-12-25T00:58:18.685Z,1002.62
2022-12-25T00:59:18.674Z,1002.69
2022-12-25T01:00:18.683Z,1002.67
2022-12-25T01:01:18.779Z,1002.70
2022-12-25T01:02:18.677Z,1002.68
2022-12-25T01:03:18.640Z,1002.71
2022-12-25T01:04:18.616Z,1002.70
2022-12-25T01:05:18.581Z,1002.67
2022-12-25T01:06:18.596Z,1002.74
2022-12-25T01:07:18.543Z,1002.71
2022-12-25T01:08:18.567Z,1002.78
2022-12-25T01:09:18.717Z,1002.72
2022-12-25T01:10:18.541Z,1002.74
2022-12-25T01:11:18.503Z,1002.73
2022-12-25T01:12:18.517Z,1002.73
2022-12-25T01:13:18.462Z,1002.71
2022-12-25T01:14:18.480Z,1002.67
2022-12-25T01:15:18.493Z,1002.67
2022-12-25T01:16:18.531Z,1002.62
2022-12-25T01:17:18.448Z,1002.58
2022-12-25T01:18:18.487Z,1002.58
2022-12-25T01:19:18.421Z,1002.56
2022-12-25T01:20:18.416Z,1002.53
2022-12-25T01:21:18.402Z,1002.60
2022-12-25T01:22:18.395Z,1002.62
2022-12-25T01:23:18.410Z,1002.62
2022-12-25T01:24:18.382Z,1002.68
2022-12-25T01:25:18.355Z,1002.67
2022-12-25T01:26:18.347Z,1002.70
2022-12-25T01:27:18.331Z,1002.75
2022-12-25T01:28:18.377Z,1002.72
2022-12-25T01:29:18.314Z,1002.67
2022-12-25T01:30:18.284Z,1002.70
2022-12-25T01:31:18.321Z,1002.69
2022-12-25T01:32:18.296Z,1002.68
2022-12-25T01:33:18.293Z,1002.75
2022-12-25T01:34:18.238Z,1002.74
2022-12-25T01:35:18.248Z,1002.71
2022-12-25T01:36:18.215Z,1002.67
2022-12-25T01:37:18.232Z,1002.68
2022-12-25T01:38:18.228Z,1002.66
2022-12-25T01:39:18.231Z,1002.71
2022-12-25T01:40:18.194Z,1002.72
2022-12-25T01:41:18.141Z,1002.69
2022-12-25T01:42:18.146Z,1002.71
2022-12-25T01:43:18.794Z,1002.68
2022-12-25T01:44:18.132Z,1002.68
2022-12-25T01:45:18.127Z,1002.67
2022-12-25T01:46:18.197Z,1002.67
2022-12-25T01:47:18.108Z,1002.67
2022-12-25T01:48:18.095Z,1002.63
2022-12-25T01:49:18.073Z,1002.60
2022-12-25T01:50:18.041Z,1002.56
2022-12-25T01:51:18.064Z,1002.51
2022-12-25T01:52:23.593Z,1002.52
2022-12-25T01:53:19.008Z,1002.45
2022-12-25T01:54:18.039Z,1002.46
2022-12-25T01:55:18.021Z,1002.47
2022-12-25T01:56:17.990Z,1002.42
2022-12-25T01:57:17.972Z,1002.37
2022-12-25T01:58:17.967Z,1002.38
2022-12-25T01:59:17.970Z,1002.38
2022-12-25T02:00:17.923Z,1002.35
2022-12-25T02:01:18.107Z,1002.34
2022-12-25T02:02:17.957Z,1002.41
2022-12-25T02:03:18.014Z,1002.40
2022-12-25T02:04:17.927Z,1002.47
2022-12-25T02:05:17.872Z,1002.42
2022-12-25T02:06:17.879Z,1002.46
2022-12-25T02:07:17.872Z,1002.48
2022-12-25T02:08:17.886Z,1002.48
2022-12-25T02:09:18.791Z,1002.55
2022-12-25T02:10:17.823Z,1002.58
2022-12-25T02:11:17.802Z,1002.62
2022-12-25T02:12:17.797Z,1002.62
2022-12-25T02:13:17.803Z,1002.60
2022-12-25T02:14:17.820Z,1002.62
2022-12-25T02:15:17.796Z,1002.63
2022-12-25T02:16:17.766Z,1002.62
2022-12-25T02:17:17.791Z,1002.65
2022-12-25T02:18:17.713Z,1002.68
2022-12-25T02:19:17.754Z,1002.71
2022-12-25T02:20:17.695Z,1002.74
2022-12-25T02:21:17.732Z,1002.72
2022-12-25T02:22:17.690Z,1002.70
2022-12-25T02:23:17.682Z,1002.74
2022-12-25T02:24:17.666Z,1002.74
2022-12-25T02:25:17.671Z,1002.75
2022-12-25T02:26:17.632Z,1002.79
2022-12-25T02:27:17.651Z,1002.78
2022-12-25T02:28:17.631Z,1002.78
2022-12-25T02:29:17.624Z,1002.77
2022-12-25T02:30:17.567Z,1002.71
2022-12-25T02:31:17.725Z,1002.71
2022-12-25T02:32:17.672Z,1002.69
2022-12-25T02:33:17.613Z,1002.72
2022-12-25T02:34:17.544Z,1002.69
2022-12-25T02:35:17.557Z,1002.73
2022-12-25T02:36:17.499Z,1002.79
2022-12-25T02:37:17.529Z,1002.78
2022-12-25T02:38:17.521Z,1002.82
2022-12-25T02:39:17.505Z,1002.78
2022-12-25T02:40:17.487Z,1002.75
2022-12-25T02:41:17.476Z,1002.73
2022-12-25T02:42:17.496Z,1002.76
2022-12-25T02:43:17.456Z,1002.73
2022-12-25T02:44:17.439Z,1002.77
2022-12-25T02:45:17.436Z,1002.75
2022-12-25T02:46:17.468Z,1002.78
2022-12-25T02:47:17.384Z,1002.74
2022-12-25T02:48:17.363Z,1002.71
2022-12-25T02:49:17.422Z,1002.71
2022-12-25T02:50:17.369Z,1002.69
2022-12-25T02:51:17.394Z,1002.79
2022-12-25T02:52:17.311Z,1002.70
2022-12-25T02:53:17.316Z,1002.70
2022-12-25T02:54:17.318Z,1002.69
2022-12-25T02:55:17.323Z,1002.68
2022-12-25T02:56:17.286Z,1002.64
2022-12-25T02:57:17.388Z,1002.66
2022-12-25T02:58:17.241Z,1002.63
2022-12-25T02:59:17.270Z,1002.60
2022-12-25T03:00:17.241Z,1002.59
2022-12-25T03:01:17.328Z,1002.66
2022-12-25T03:02:17.448Z,1002.66
2022-12-25T03:03:17.274Z,1002.64
2022-12-25T03:04:17.230Z,1002.69
2022-12-25T03:05:17.172Z,1002.73
2022-12-25T03:06:17.231Z,1002.69
2022-12-25T03:07:17.152Z,1002.64
2022-12-25T03:08:17.193Z,1002.62
2022-12-25T03:09:17.163Z,1002.61
2022-12-25T03:10:17.146Z,1002.72
2022-12-25T03:11:17.208Z,1002.69
2022-12-25T03:12:17.114Z,1002.63
2022-12-25T03:13:17.108Z,1002.63
2022-12-25T03:14:17.094Z,1002.64
2022-12-25T03:15:17.133Z,1002.61
2022-12-25T03:16:17.057Z,1002.62
2022-12-25T03:17:17.075Z,1002.66
2022-12-25T03:18:17.050Z,1002.64
2022-12-25T03:19:17.063Z,1002.62
2022-12-25T03:20:17.027Z,1002.64
2022-12-25T03:21:17.042Z,1002.62
2022-12-25T03:22:16.995Z,1002.60
2022-12-25T03:23:17.012Z,1002.64
2022-12-25T03:24:16.955Z,1002.67
2022-12-25T03:25:16.949Z,1002.63
2022-12-25T03:26:17.020Z,1002.61
2022-12-25T03:27:16.977Z,1002.59
2022-12-25T03:28:16.939Z,1002.60
2022-12-25T03:29:16.968Z,1002.61
2022-12-25T03:30:16.916Z,1002.62
2022-12-25T03:31:16.972Z,1002.57
2022-12-25T03:32:16.860Z,1002.61
2022-12-25T03:33:37.141Z,1002.55
2022-12-25T03:34:17.877Z,1002.61
2022-12-25T03:35:18.321Z,1002.64
2022-12-25T03:36:16.845Z,1002.57
2022-12-25T03:37:16.813Z,1002.51
2022-12-25T03:38:16.854Z,1002.48
2022-12-25T03:39:16.846Z,1002.42
2022-12-25T03:40:16.802Z,1002.47
2022-12-25T03:41:16.799Z,1002.43
2022-12-25T03:42:16.793Z,1002.41
2022-12-25T03:43:16.765Z,1002.48
2022-12-25T03:44:16.724Z,1002.40
2022-12-25T03:45:16.767Z,1002.33
2022-12-25T03:46:16.775Z,1002.39
2022-12-25T03:47:16.760Z,1002.38
2022-12-25T03:48:16.701Z,1002.34
2022-12-25T03:49:16.711Z,1002.35
2022-12-25T03:50:16.685Z,1002.29
2022-12-25T03:51:16.657Z,1002.24
2022-12-25T03:52:16.636Z,1002.22
2022-12-25T03:53:16.656Z,1002.18
2022-12-25T03:54:16.618Z,1002.09
2022-12-25T03:55:16.663Z,1002.11
2022-12-25T03:56:16.605Z,1002.07
2022-12-25T03:57:16.617Z,1002.17
2022-12-25T03:58:16.594Z,1002.15
2022-12-25T03:59:22.893Z,1002.14
2022-12-25T04:00:17.576Z,1002.17
2022-12-25T04:01:16.706Z,1002.19
2022-12-25T04:02:16.633Z,1002.07
2022-12-25T04:03:16.535Z,1002.11
2022-12-25T04:04:16.508Z,1002.04
2022-12-25T04:05:16.531Z,1002.00
2022-12-25T04:06:16.507Z,1001.99
2022-12-25T04:07:16.538Z,1001.91
2022-12-25T04:08:16.460Z,1001.90
2022-12-25T04:09:16.459Z,1001.88
2022-12-25T04:10:16.437Z,1001.82
2022-12-25T04:11:16.496Z,1001.83
2022-12-25T04:12:16.473Z,1001.79
2022-12-25T04:13:16.439Z,1001.82
2022-12-25T04:14:16.420Z,1001.85
2022-12-25T04:15:16.406Z,1001.89
2022-12-25T04:16:16.534Z,1001.98
2022-12-25T04:17:16.411Z,1001.91
2022-12-25T04:18:16.370Z,1002.04
2022-12-25T04:19:16.363Z,1001.93
2022-12-25T04:20:16.347Z,1002.01
2022-12-25T04:21:16.319Z,1001.92
2022-12-25T04:22:16.292Z,1002.02
2022-12-25T04:23:16.304Z,1002.03
2022-12-25T04:24:16.319Z,1002.09
2022-12-25T04:25:16.305Z,1002.18
2022-12-25T04:26:16.276Z,1002.17
2022-12-25T04:27:16.293Z,1002.23
2022-12-25T04:28:16.243Z,1002.25
2022-12-25T04:29:16.277Z,1002.25
2022-12-25T04:30:16.235Z,1002.26
2022-12-25T04:31:16.325Z,1002.25
2022-12-25T04:32:16.177Z,1002.20
2022-12-25T04:33:16.178Z,1002.15
2022-12-25T04:34:16.190Z,1002.20
2022-12-25T04:35:16.191Z,1002.21
2022-12-25T04:36:16.193Z,1002.14
2022-12-25T04:37:16.188Z,1002.16
2022-12-25T04:38:16.111Z,1002.17
2022-12-25T04:39:16.146Z,1002.16
2022-12-25T04:40:16.080Z,1002.13
2022-12-25T04:41:16.126Z,1002.15
2022-12-25T04:42:16.059Z,1002.16
2022-12-25T04:43:16.102Z,1002.13
2022-12-25T04:44:16.067Z,1002.18
2022-12-25T04:45:16.065Z,1002.20
2022-12-25T04:46:16.085Z,1002.20
2022-12-25T04:47:16.095Z,1002.20
2022-12-25T04:48:16.016Z,1002.19
2022-12-25T04:49:16.025Z,1002.20
2022-12-25T04:50:15.999Z,1002.21
2022-12-25T04:51:16.016Z,1002.19
2022-12-25T04:52:15.971Z,1002.25
2022-12-25T04:53:15.979Z,1002.20
2022-12-25T04:54:15.980Z,1002.18
2022-12-25T04:55:15.923Z,1002.17
2022-12-25T04:56:15.926Z,1002.12
2022-12-25T04:57:15.958Z,1002.09
2022-12-25T04:58:15.900Z,1002.05
2022-12-25T04:59:15.936Z,1001.97
2022-12-25T05:00:15.878Z,1001.94
2022-12-25T05:01:15.952Z,1001.91
2022-12-25T05:02:15.943Z,1001.94
2022-12-25T05:03:15.938Z,1001.91
2022-12-25T05:04:15.805Z,1001.86
2022-12-25T05:05:15.861Z,1001.95
2022-12-25T05:06:15.811Z,1001.86
2022-12-25T05:07:15.794Z,1001.85
2022-12-25T05:08:15.764Z,1001.86
2022-12-25T05:09:15.833Z,1001.84
2022-12-25T05:10:15.763Z,1001.83
2022-12-25T05:11:15.763Z,1001.87
2022-12-25T05:12:15.817Z,1001.91
2022-12-25T05:13:15.731Z,1001.90
2022-12-25T05:14:15.739Z,1001.86
2022-12-25T05:15:15.706Z,1001.88
2022-12-25T05:16:15.774Z,1001.92
2022-12-25T05:17:15.797Z,1001.85
2022-12-25T05:18:15.685Z,1001.86
2022-12-25T05:19:15.672Z,1001.87
2022-12-25T05:20:15.679Z,1001.86
2022-12-25T05:21:15.636Z,1001.87
2022-12-25T05:22:15.644Z,1001.82
2022-12-25T05:23:15.602Z,1001.89
2022-12-25T05:24:15.617Z,1001.90
2022-12-25T05:25:15.595Z,1001.86
2022-12-25T05:26:15.567Z,1001.81
2022-12-25T05:27:15.569Z,1001.84
2022-12-25T05:28:15.554Z,1001.79
2022-12-25T05:29:15.531Z,1001.82
2022-12-25T05:30:15.545Z,1001.82
2022-12-25T05:31:15.600Z,1001.79
2022-12-25T05:32:15.535Z,1001.79
2022-12-25T05:33:15.480Z,1001.83
2022-12-25T05:34:15.501Z,1001.83
2022-12-25T05:35:15.507Z,1001.76
2022-12-25T05:36:15.481Z,1001.78
2022-12-25T05:37:15.431Z,1001.75
2022-12-25T05:38:15.433Z,1001.74
2022-12-25T05:39:15.406Z,1001.69
2022-12-25T05:40:15.442Z,1001.66
2022-12-25T05:41:15.429Z,1001.67
2022-12-25T05:42:15.425Z,1001.72
2022-12-25T05:43:15.363Z,1001.63
2022-12-25T05:44:15.386Z,1001.62
2022-12-25T05:45:15.347Z,1001.50
2022-12-25T05:46:15.409Z,1001.54
2022-12-25T05:47:15.346Z,1001.51
2022-12-25T05:48:15.314Z,1001.54
2022-12-25T05:49:15.291Z,1001.58
2022-12-25T05:50:15.363Z,1001.54
2022-12-25T05:51:15.307Z,1001.55
2022-12-25T05:52:15.300Z,1001.55
2022-12-25T05:53:15.270Z,1001.57
2022-12-25T05:54:15.270Z,1001.56
2022-12-25T05:55:15.252Z,1001.56
2022-12-25T05:56:15.272Z,1001.56
2022-12-25T05:57:15.228Z,1001.59
2022-12-25T05:58:15.223Z,1001.57
2022-12-25T05:59:15.201Z,1001.55
2022-12-25T06:00:15.202Z,1001.46
2022-12-25T06:01:15.247Z,1001.53
2022-12-25T06:02:15.366Z,1001.51
2022-12-25T06:03:15.241Z,1001.61
2022-12-25T06:04:15.203Z,1001.61
2022-12-25T06:05:15.132Z,1001.61
2022-12-25T06:06:15.167Z,1001.69
2022-12-25T06:07:15.108Z,1001.69
2022-12-25T06:08:15.104Z,1001.66
2022-12-25T06:09:15.055Z,1001.68
2022-12-25T06:10:15.097Z,1001.67
2022-12-25T06:11:15.059Z,1001.70
2022-12-25T06:12:15.039Z,1001.70
2022-12-25T06:13:15.037Z,1001.71
2022-12-25T06:14:15.044Z,1001.68
2022-12-25T06:15:14.991Z,1001.65
2022-12-25T06:16:15.069Z,1001.62
2022-12-25T06:17:15.010Z,1001.58
2022-12-25T06:18:14.975Z,1001.55
2022-12-25T06:19:14.965Z,1001.63
2022-12-25T06:20:14.960Z,1001.61
2022-12-25T06:21:14.980Z,1001.59
2022-12-25T06:22:14.919Z,1001.55
2022-12-25T06:23:14.921Z,1001.58
2022-12-25T06:24:20.966Z,1001.59
2022-12-25T06:25:15.902Z,1001.53
2022-12-25T06:26:14.945Z,1001.48
2022-12-25T06:27:14.849Z,1001.51
2022-12-25T06:28:14.868Z,1001.44
2022-12-25T06:29:14.828Z,1001.52
2022-12-25T06:30:14.847Z,1001.48
2022-12-25T06:31:14.846Z,1001.46
2022-12-25T06:32:14.802Z,1001.48
2022-12-25T06:33:14.827Z,1001.51
2022-12-25T06:34:14.801Z,1001.46
2022-12-25T06:35:14.810Z,1001.44
2022-12-25T06:36:14.762Z,1001.38
2022-12-25T06:37:14.759Z,1001.33
2022-12-25T06:38:14.790Z,1001.29
2022-12-25T06:39:14.731Z,1001.26
2022-12-25T06:40:14.776Z,1001.21
2022-12-25T06:41:14.683Z,1001.19
2022-12-25T06:42:14.767Z,1001.19
2022-12-25T06:43:14.667Z,1001.23
2022-12-25T06:44:14.664Z,1001.25
2022-12-25T06:45:14.638Z,1001.23
2022-12-25T06:46:14.753Z,1001.20
2022-12-25T06:47:14.678Z,1001.19
2022-12-25T06:48:14.644Z,1001.16
2022-12-25T06:49:14.644Z,1001.08
2022-12-25T06:50:14.634Z,1001.09
2022-12-25T06:51:14.564Z,1001.06
2022-12-25T06:52:14.574Z,1001.07
2022-12-25T06:53:14.576Z,1001.04
2022-12-25T06:54:14.600Z,1001.11
2022-12-25T06:55:14.524Z,1001.08
2022-12-25T06:56:14.525Z,1001.13
2022-12-25T06:57:14.499Z,1001.08
2022-12-25T06:58:14.504Z,1001.03
2022-12-25T06:59:14.501Z,1001.06
2022-12-25T07:00:14.515Z,1001.02
2022-12-25T07:01:14.527Z,1001.00
2022-12-25T07:02:14.574Z,1001.02
2022-12-25T07:03:14.521Z,1001.03
2022-12-25T07:04:14.440Z,1001.09
2022-12-25T07:05:14.445Z,1001.10
2022-12-25T07:06:14.407Z,1001.16
2022-12-25T07:07:14.383Z,1001.07
2022-12-25T07:08:14.404Z,1001.10
2022-12-25T07:09:14.358Z,1001.14
2022-12-25T07:10:14.437Z,1001.07
2022-12-25T07:11:14.348Z,1001.04
2022-12-25T07:12:14.368Z,1001.04
2022-12-25T07:13:14.339Z,1001.08
2022-12-25T07:14:17.403Z,1001.07
2022-12-25T07:15:15.339Z,1001.05
2022-12-25T07:16:14.354Z,1001.05
2022-12-25T07:17:14.262Z,1001.09
2022-12-25T07:18:14.277Z,1001.04
2022-12-25T07:19:14.595Z,1001.08
2022-12-25T07:20:14.245Z,1001.04
2022-12-25T07:21:14.220Z,1000.97
2022-12-25T07:22:14.273Z,1000.90
2022-12-25T07:23:14.199Z,1000.83
2022-12-25T07:24:14.228Z,1000.70
2022-12-25T07:25:14.217Z,1000.68
2022-12-25T07:26:14.205Z,1000.63
2022-12-25T07:27:14.162Z,1000.62
2022-12-25T07:28:14.175Z,1000.60
2022-12-25T07:29:14.152Z,1000.56
2022-12-25T07:30:14.163Z,1000.55
2022-12-25T07:31:14.132Z,1000.55
2022-12-25T07:32:14.178Z,1000.58
2022-12-25T07:33:14.083Z,1000.65
2022-12-25T07:34:14.091Z,1000.68
2022-12-25T07:35:14.085Z,1000.80
2022-12-25T07:36:14.089Z,1000.80
2022-12-25T07:37:14.034Z,1000.75
2022-12-25T07:38:14.040Z,1000.72
2022-12-25T07:39:14.031Z,1000.71
2022-12-25T07:40:14.067Z,1000.67
2022-12-25T07:41:13.982Z,1000.69
2022-12-25T07:42:19.355Z,1000.60
2022-12-25T07:43:14.968Z,1000.61
2022-12-25T07:44:14.016Z,1000.54
2022-12-25T07:45:13.967Z,1000.49
2022-12-25T07:46:14.019Z,1000.45
2022-12-25T07:47:13.937Z,1000.44
2022-12-25T07:48:16.815Z,1000.44
2022-12-25T07:49:13.927Z,1000.51
2022-12-25T07:50:13.909Z,1000.58
2022-12-25T07:51:13.869Z,1000.64
2022-12-25T07:52:13.913Z,1000.60
2022-12-25T07:53:13.864Z,1000.52
2022-12-25T07:54:13.846Z,1000.45
2022-12-25T07:55:13.884Z,1000.44
2022-12-25T07:56:13.820Z,1000.41
2022-12-25T07:57:13.825Z,1000.40
2022-12-25T07:58:18.506Z,1000.43
2022-12-25T07:59:14.769Z,1000.35
2022-12-25T08:00:13.815Z,1000.31
2022-12-25T08:01:13.824Z,1000.32
2022-12-25T08:02:13.914Z,1000.24
2022-12-25T08:03:13.990Z,1000.16
2022-12-25T08:04:13.796Z,1000.14
2022-12-25T08:05:13.785Z,1000.18
2022-12-25T08:06:13.739Z,1000.19
2022-12-25T08:07:13.709Z,1000.22
2022-12-25T08:08:13.694Z,1000.19
2022-12-25T08:09:13.659Z,1000.17
2022-12-25T08:10:13.764Z,1000.13
2022-12-25T08:11:13.658Z,1000.07
2022-12-25T08:12:13.632Z,1000.04
2022-12-25T08:13:14.728Z,1000.04
2022-12-25T08:14:13.657Z,1000.10
2022-12-25T08:15:13.591Z,1000.12
2022-12-25T08:16:13.727Z,1000.19
2022-12-25T08:17:13.689Z,1000.20
2022-12-25T08:18:13.590Z,1000.18
2022-12-25T08:19:13.571Z,1000.15
2022-12-25T08:20:13.544Z,1000.15
2022-12-25T08:21:13.571Z,1000.23
2022-12-25T08:22:13.560Z,1000.32
2022-12-25T08:23:13.533Z,1000.39
2022-12-25T08:24:13.520Z,1000.43
2022-12-25T08:25:13.507Z,1000.40
2022-12-25T08:26:13.525Z,1000.33
2022-12-25T08:27:13.455Z,1000.30
2022-12-25T08:28:13.478Z,1000.32
2022-12-25T08:29:13.453Z,1000.39
2022-12-25T08:30:13.467Z,1000.31
2022-12-25T08:31:13.572Z,1000.30
2022-12-25T08:32:13.432Z,1000.24
2022-12-25T08:33:13.404Z,1000.17
2022-12-25T08:34:13.432Z,1000.24
2022-12-25T08:35:13.405Z,1000.23
2022-12-25T08:36:13.427Z,1000.28
2022-12-25T08:37:13.371Z,1000.41
2022-12-25T08:38:13.346Z,1000.46
2022-12-25T08:39:13.334Z,1000.46
2022-12-25T08:40:13.358Z,1000.46
2022-12-25T08:41:13.289Z,1000.43
2022-12-25T08:42:13.285Z,1000.33
2022-12-25T08:43:13.267Z,1000.23
2022-12-25T08:44:13.332Z,1000.25
2022-12-25T08:45:13.265Z,1000.22
2022-12-25T08:46:13.327Z,1000.22
2022-12-25T08:47:14.920Z,1000.23
2022-12-25T08:48:13.230Z,1000.17
2022-12-25T08:49:13.217Z,1000.10
2022-12-25T08:50:13.208Z,1000.11
2022-12-25T08:51:13.196Z,1000.07
2022-12-25T08:52:13.206Z,1000.01
2022-12-25T08:53:13.252Z,1000.03
2022-12-25T08:54:13.160Z,1000.03
2022-12-25T08:55:13.129Z,1000.01
2022-12-25T08:56:13.160Z,1000.08
2022-12-25T08:57:13.131Z,1000.10
2022-12-25T08:58:13.129Z,1000.18
2022-12-25T08:59:13.146Z,1000.27
2022-12-25T09:00:13.141Z,1000.42
2022-12-25T09:01:13.099Z,1000.55
2022-12-25T09:02:13.277Z,1000.65
2022-12-25T09:03:13.096Z,1000.76
2022-12-25T09:04:13.084Z,1000.72
2022-12-25T09:05:13.040Z,1000.75
2022-12-25T09:06:13.018Z,1000.71
2022-12-25T09:07:12.998Z,1000.76
2022-12-25T09:08:12.993Z,1000.77
2022-12-25T09:09:12.994Z,1000.79
2022-12-25T09:10:12.963Z,1000.76
2022-12-25T09:11:12.944Z,1000.77
2022-12-25T09:12:12.970Z,1000.75
2022-12-25T09:13:12.960Z,1000.71
2022-12-25T09:14:12.956Z,1000.67
2022-12-25T09:15:12.915Z,1000.64
2022-12-25T09:16:13.014Z,1000.53
2022-12-25T09:17:12.908Z,1000.48
2022-12-25T09:18:12.902Z,1000.42
2022-12-25T09:19:12.888Z,1000.36
2022-12-25T09:20:12.888Z,1000.38
2022-12-25T09:21:12.893Z,1000.36
2022-12-25T09:22:12.863Z,1000.34
2022-12-25T09:23:14.345Z,1000.24
2022-12-25T09:24:12.855Z,1000.26
2022-12-25T09:25:12.832Z,1000.28
2022-12-25T09:26:12.776Z,1000.24
2022-12-25T09:27:12.791Z,1000.21
2022-12-25T09:28:12.757Z,1000.15
2022-12-25T09:29:12.818Z,1000.10
2022-12-25T09:30:12.742Z,1000.10
2022-12-25T09:31:12.815Z,1000.07
2022-12-25T09:32:12.708Z,1000.07
2022-12-25T09:33:12.751Z,1000.09
2022-12-25T09:34:17.176Z,1000.08
2022-12-25T09:35:13.714Z,1000.07
2022-12-25T09:36:12.720Z,1000.06
2022-12-25T09:37:12.687Z,1000.11
2022-12-25T09:38:12.643Z,1000.18
2022-12-25T09:39:12.680Z,1000.24
2022-12-25T09:40:12.611Z,1000.29
2022-12-25T09:41:12.651Z,1000.33
2022-12-25T09:42:12.617Z,1000.37
2022-12-25T09:43:12.612Z,1000.34
2022-12-25T09:44:12.587Z,1000.38
2022-12-25T09:45:12.594Z,1000.44
2022-12-25T09:46:12.584Z,1000.44
2022-12-25T09:47:12.542Z,1000.46
2022-12-25T09:48:12.528Z,1000.48
2022-12-25T09:49:12.551Z,1000.45
2022-12-25T09:50:12.500Z,1000.43
2022-12-25T09:51:12.564Z,1000.40
2022-12-25T09:52:12.500Z,1000.39
2022-12-25T09:53:12.518Z,1000.42
2022-12-25T09:54:12.484Z,1000.42
2022-12-25T09:55:17.880Z,1000.48
2022-12-25T09:56:13.489Z,1000.53
2022-12-25T09:57:12.447Z,1000.55
2022-12-25T09:58:12.436Z,1000.54
2022-12-25T09:59:12.464Z,1000.56
2022-12-25T10:00:12.394Z,1000.60
2022-12-25T10:01:12.488Z,1000.63
2022-12-25T10:02:12.593Z,1000.65
2022-12-25T10:03:12.475Z,1000.59
2022-12-25T10:04:12.400Z,1000.60
2022-12-25T10:05:12.379Z,1000.57
2022-12-25T10:06:12.351Z,1000.60
2022-12-25T10:07:12.315Z,1000.63
2022-12-25T10:08:12.327Z,1000.60
2022-12-25T10:09:12.307Z,1000.62
2022-12-25T10:10:12.320Z,1000.57
2022-12-25T10:11:12.290Z,1000.57
2022-12-25T10:12:12.275Z,1000.51
2022-12-25T10:13:12.310Z,1000.51
2022-12-25T10:14:12.307Z,1000.43
2022-12-25T10:15:12.260Z,1000.40
2022-12-25T10:16:12.293Z,1000.36
2022-12-25T10:17:12.237Z,1000.29
2022-12-25T10:18:12.187Z,1000.23
2022-12-25T10:19:12.254Z,1000.25
2022-12-25T10:20:12.177Z,1000.15
2022-12-25T10:21:13.327Z,1000.14
2022-12-25T10:22:12.161Z,1000.19
2022-12-25T10:23:12.177Z,1000.23
2022-12-25T10:24:12.177Z,1000.28
2022-12-25T10:25:12.153Z,1000.28
2022-12-25T10:26:12.147Z,1000.22
2022-12-25T10:27:12.119Z,1000.22
2022-12-25T10:28:12.125Z,1000.11
2022-12-25T10:29:12.097Z,1000.05
2022-12-25T10:30:12.064Z,1000.06
2022-12-25T10:31:13.545Z,1000.00
2022-12-25T10:32:12.062Z,1000.04
2022-12-25T10:33:16.935Z,1000.00
2022-12-25T10:34:13.033Z,999.92
2022-12-25T10:35:12.002Z,999.88
2022-12-25T10:36:11.985Z,999.77
2022-12-25T10:37:11.993Z,999.68
2022-12-25T10:38:13.691Z,999.64
2022-12-25T10:39:11.963Z,999.58
2022-12-25T10:40:11.928Z,999.47
2022-12-25T10:41:11.981Z,999.46
2022-12-25T10:42:11.923Z,999.44
2022-12-25T10:43:12.107Z,999.50
2022-12-25T10:44:11.912Z,999.50
2022-12-25T10:45:11.934Z,999.61
2022-12-25T10:46:12.035Z,999.61
2022-12-25T10:47:11.893Z,999.60
2022-12-25T10:48:11.893Z,999.58
2022-12-25T10:49:11.904Z,999.54
2022-12-25T10:50:11.864Z,999.50
2022-12-25T10:51:11.819Z,999.54
2022-12-25T10:52:11.824Z,999.55
2022-12-25T10:53:11.832Z,999.52
2022-12-25T10:54:11.795Z,999.57
2022-12-25T10:55:11.841Z,999.60
2022-12-25T10:56:11.785Z,999.52
2022-12-25T10:57:11.757Z,999.59
2022-12-25T10:58:11.728Z,999.62
2022-12-25T10:59:11.956Z,999.62
2022-12-25T11:00:11.724Z,999.64
2022-12-25T11:01:11.762Z,999.68
2022-12-25T11:02:11.768Z,999.72
2022-12-25T11:03:11.868Z,999.63
2022-12-25T11:04:11.847Z,999.61
2022-12-25T11:05:11.671Z,999.52
2022-12-25T11:06:11.640Z,999.54
2022-12-25T11:07:11.667Z,999.43
2022-12-25T11:08:11.652Z,999.40
2022-12-25T11:09:11.650Z,999.34
2022-12-25T11:10:11.617Z,999.35
2022-12-25T11:11:11.590Z,999.35
2022-12-25T11:12:11.600Z,999.39
2022-12-25T11:13:11.571Z,999.38
2022-12-25T11:14:11.620Z,999.33
2022-12-25T11:15:11.576Z,999.35
2022-12-25T11:16:11.592Z,999.41
2022-12-25T11:17:11.525Z,999.33
2022-12-25T11:18:11.530Z,999.36
2022-12-25T11:19:11.549Z,999.39
2022-12-25T11:20:11.509Z,999.38
2022-12-25T11:21:11.510Z,999.31
2022-12-25T11:22:11.466Z,999.33
2022-12-25T11:23:11.454Z,999.32
2022-12-25T11:24:11.457Z,999.27
2022-12-25T11:25:11.484Z,999.29
2022-12-25T11:26:11.419Z,999.29
2022-12-25T11:27:11.416Z,999.27
2022-12-25T11:28:11.576Z,999.24
2022-12-25T11:29:11.431Z,999.24
2022-12-25T11:30:15.942Z,999.26
2022-12-25T11:31:11.415Z,999.21
2022-12-25T11:32:11.355Z,999.23
2022-12-25T11:33:11.347Z,999.15
2022-12-25T11:34:11.379Z,999.13
2022-12-25T11:35:11.336Z,999.04
2022-12-25T11:36:11.326Z,998.96
2022-12-25T11:37:11.325Z,998.99
2022-12-25T11:38:11.302Z,998.86
2022-12-25T11:39:11.333Z,998.88
2022-12-25T11:40:11.274Z,998.78
2022-12-25T11:41:11.302Z,998.79
2022-12-25T11:42:11.236Z,998.72
2022-12-25T11:43:11.387Z,998.77
2022-12-25T11:44:11.235Z,998.62
2022-12-25T11:45:11.220Z,998.62
2022-12-25T11:46:11.231Z,998.57
2022-12-25T11:47:11.202Z,998.56
2022-12-25T11:48:11.184Z,998.51
2022-12-25T11:49:11.196Z,998.53
2022-12-25T11:50:11.158Z,998.51
2022-12-25T11:51:11.171Z,998.44
2022-12-25T11:52:11.154Z,998.52
2022-12-25T11:53:11.179Z,998.39
2022-12-25T11:54:11.128Z,998.34
2022-12-25T11:55:11.135Z,998.25
2022-12-25T11:56:11.071Z,998.25
2022-12-25T11:57:11.071Z,998.20
2022-12-25T11:58:11.080Z,998.25
2022-12-25T11:59:16.421Z,998.20
2022-12-25T12:00:12.066Z,998.11
2022-12-25T12:01:11.033Z,998.14
2022-12-25T12:02:11.097Z,998.14
2022-12-25T12:03:11.183Z,998.16
2022-12-25T12:04:11.084Z,998.17
2022-12-25T12:05:11.027Z,998.18
2022-12-25T12:06:11.005Z,998.17
2022-12-25T12:07:11.160Z,998.21
2022-12-25T12:08:10.960Z,998.22